createdAt,value
2018-10-07T00:02:10.334Z,28.70
2018-10-07T00:04:42.866Z,30.40
2018-10-07T00:07:15.027Z,31.70
2018-10-07T00:09:47.202Z,30.90
2018-10-07T00:12:19.534Z,30.40
2018-10-07T00:14:51.901Z,30.00
2018-10-07T00:17:24.296Z,31.10
2018-10-07T00:19:56.889Z,29.30
2018-10-07T00:22:28.614Z,32.90
2018-10-07T00:25:00.706Z,30.70
2018-10-07T00:27:33.655Z,30.60
2018-10-07T00:30:05.847Z,29.80
2018-10-07T00:32:37.998Z,30.60
2018-10-07T00:35:10.439Z,29.70
2018-10-07T00:37:42.548Z,30.50
2018-10-07T00:40:15.161Z,29.70
2018-10-07T00:42:47.506Z,29.60
2018-10-07T00:45:19.257Z,29.90
2018-10-07T00:47:51.011Z,31.00
2018-10-07T00:50:23.222Z,30.80
2018-10-07T00:52:55.968Z,30.50
2018-10-07T00:55:28.390Z,31.90
2018-10-07T00:58:00.528Z,30.10
2018-10-07T01:00:32.660Z,32.40
2018-10-07T01:03:04.833Z,33.50
2018-10-07T01:05:37.421Z,32.40
2018-10-07T01:08:09.821Z,32.00
2018-10-07T01:10:41.923Z,31.20
2018-10-07T01:13:13.690Z,31.40
2018-10-07T01:15:45.779Z,33.10
2018-10-07T01:18:18.241Z,32.90
2018-10-07T01:20:50.531Z,32.00
2018-10-07T01:23:22.658Z,32.60
2018-10-07T01:25:54.502Z,32.40
2018-10-07T01:28:26.306Z,34.10
2018-10-07T01:30:58.586Z,34.50
2018-10-07T01:33:30.888Z,35.70
2018-10-07T01:36:03.352Z,37.50
2018-10-07T01:38:35.910Z,37.40
2018-10-07T01:41:09.061Z,36.70
2018-10-07T01:43:41.422Z,38.30
2018-10-07T01:46:13.684Z,37.10
2018-10-07T01:48:45.411Z,38.00
2018-10-07T01:51:17.714Z,38.70
2018-10-07T01:53:50.188Z,38.80
2018-10-07T01:56:22.327Z,41.80
2018-10-07T01:58:54.830Z,44.00
2018-10-07T02:01:27.280Z,45.10
2018-10-07T02:03:59.401Z,46.30
2018-10-07T02:06:31.561Z,46.50
2018-10-07T02:09:03.554Z,47.40
2018-10-07T02:11:35.896Z,49.00
2018-10-07T02:14:08.427Z,50.80
2018-10-07T02:16:40.991Z,51.60
2018-10-07T02:19:13.410Z,52.80
2018-10-07T02:21:45.770Z,53.90
2018-10-07T02:24:18.325Z,54.50
2018-10-07T02:26:50.737Z,56.10
2018-10-07T02:29:22.487Z,56.90
2018-10-07T02:31:54.330Z,58.10
2018-10-07T02:34:26.681Z,58.90
2018-10-07T02:36:58.971Z,59.40
2018-10-07T02:39:31.170Z,60.60
2018-10-07T02:42:03.882Z,61.60
2018-10-07T02:44:36.155Z,62.10
2018-10-07T02:47:08.543Z,62.20
2018-10-07T02:49:41.120Z,63.30
2018-10-07T02:52:14.302Z,64.10
2018-10-07T02:54:46.766Z,64.90
2018-10-07T02:57:19.815Z,66.10
2018-10-07T02:59:52.779Z,66.80
2018-10-07T03:02:25.178Z,66.30
2018-10-07T03:04:57.310Z,66.30
2018-10-07T03:07:29.518Z,66.70
2018-10-07T03:10:01.712Z,66.90
2018-10-07T03:12:33.485Z,67.10
2018-10-07T03:15:05.805Z,67.80
2018-10-07T03:17:38.217Z,68.30
2018-10-07T03:20:10.459Z,68.80
2018-10-07T03:22:42.688Z,68.60
2018-10-07T03:25:14.877Z,68.90
2018-10-07T03:27:47.240Z,69.10
2018-10-07T03:30:19.773Z,68.90
2018-10-07T03:32:52.444Z,70.20
2018-10-07T03:35:24.200Z,70.40
2018-10-07T03:37:56.341Z,70.70
2018-10-07T03:40:28.512Z,70.70
2018-10-07T03:43:01.531Z,70.90
2018-10-07T03:45:33.848Z,72.20
2018-10-07T03:48:06.230Z,72.70
2018-10-07T03:50:38.569Z,73.10
2018-10-07T03:53:11.307Z,73.40
2018-10-07T03:55:43.079Z,73.90
2018-10-07T03:58:15.458Z,74.50
2018-10-07T04:00:47.698Z,74.50
2018-10-07T04:03:19.734Z,74.80
2018-10-07T04:05:52.248Z,75.20
2018-10-07T04:08:24.947Z,75.70
2018-10-07T04:10:57.406Z,75.90
2018-10-07T04:13:29.122Z,76.20
2018-10-07T04:16:00.862Z,76.40
2018-10-07T04:18:33.123Z,76.10
2018-10-07T04:21:05.283Z,76.30
2018-10-07T04:23:37.642Z,76.50
2018-10-07T04:26:09.814Z,76.70
2018-10-07T04:28:42.020Z,76.80
2018-10-07T04:31:13.800Z,77.10
2018-10-07T04:33:46.380Z,77.30
2018-10-07T04:36:18.139Z,77.50
2018-10-07T04:38:50.249Z,77.50
2018-10-07T04:41:23.048Z,77.60
2018-10-07T04:43:55.395Z,77.50
2018-10-07T04:46:27.712Z,77.40
2018-10-07T04:48:59.727Z,77.50
2018-10-07T04:51:31.962Z,77.40
2018-10-07T04:54:04.064Z,78.00
2018-10-07T04:56:36.289Z,78.30
2018-10-07T04:59:08.531Z,78.70
2018-10-07T05:01:40.857Z,79.10
2018-10-07T05:04:13.039Z,78.70
2018-10-07T05:06:45.559Z,78.80
2018-10-07T05:09:17.626Z,78.70
2018-10-07T05:11:49.986Z,78.60
2018-10-07T05:14:22.911Z,78.30
2018-10-07T05:16:55.391Z,78.20
2018-10-07T05:19:27.853Z,79.20
2018-10-07T05:21:59.851Z,80.20
2018-10-07T05:24:32.231Z,80.80
2018-10-07T05:27:04.423Z,81.50
2018-10-07T05:29:36.734Z,82.20
2018-10-07T05:32:08.942Z,82.70
2018-10-07T05:34:40.916Z,83.20
2018-10-07T05:37:12.671Z,83.10
2018-10-07T05:39:44.437Z,83.10
2018-10-07T05:42:16.633Z,83.00
2018-10-07T05:44:49.071Z,82.90
2018-10-07T05:47:21.201Z,83.10
2018-10-07T05:49:53.633Z,82.90
2018-10-07T05:52:25.953Z,83.30
2018-10-07T05:54:58.613Z,83.70
2018-10-07T05:57:32.283Z,83.80
2018-10-07T06:00:04.224Z,83.70
2018-10-07T06:02:37.215Z,83.70
2018-10-07T06:05:09.411Z,84.00
2018-10-07T06:07:42.044Z,84.00
2018-10-07T06:10:14.792Z,84.00
2018-10-07T06:12:47.398Z,84.20
2018-10-07T06:15:28.428Z,84.30
2018-10-07T06:18:00.546Z,84.40
2018-10-07T06:20:32.705Z,84.80
2018-10-07T06:23:04.591Z,85.10
2018-10-07T06:25:36.506Z,85.50
2018-10-07T06:28:08.338Z,85.60
2018-10-07T06:30:40.636Z,86.00
2018-10-07T06:33:12.737Z,86.20
2018-10-07T06:35:45.094Z,86.30
2018-10-07T06:38:17.522Z,86.50
2018-10-07T06:40:49.464Z,86.90
2018-10-07T06:43:21.360Z,87.10
2018-10-07T06:45:53.226Z,87.70
2018-10-07T06:48:25.100Z,87.60
2018-10-07T06:50:57.319Z,88.20
2018-10-07T06:53:30.286Z,88.30
2018-10-07T06:56:02.500Z,89.20
2018-10-07T06:58:34.796Z,89.10
2018-10-07T07:01:07.249Z,90.00
2018-10-07T07:03:39.333Z,90.00
2018-10-07T07:06:12.506Z,90.10
2018-10-07T07:08:44.935Z,90.20
2018-10-07T07:11:16.738Z,90.10
2018-10-07T07:13:49.266Z,90.20
2018-10-07T07:16:21.045Z,90.20
2018-10-07T07:18:53.422Z,90.30
2018-10-07T07:21:25.820Z,90.30
2018-10-07T07:23:58.154Z,90.50
2018-10-07T07:26:30.427Z,90.30
2018-10-07T07:29:02.892Z,90.20
2018-10-07T07:31:35.286Z,90.20
2018-10-07T07:34:07.451Z,90.00
2018-10-07T07:36:39.652Z,90.00
2018-10-07T07:39:11.553Z,89.40
2018-10-07T07:41:44.030Z,88.60
2018-10-07T07:44:16.477Z,88.30
2018-10-07T07:46:48.816Z,87.70
2018-10-07T07:49:20.942Z,87.50
2018-10-07T07:51:53.149Z,87.50
2018-10-07T07:54:25.333Z,87.00
2018-10-07T07:56:57.471Z,87.10
2018-10-07T07:59:29.911Z,86.80
2018-10-07T08:02:02.233Z,86.80
2018-10-07T08:04:34.332Z,86.90
2018-10-07T08:07:06.545Z,86.90
2018-10-07T08:09:38.690Z,87.20
2018-10-07T08:12:11.297Z,87.60
2018-10-07T08:14:43.832Z,87.80
2018-10-07T08:17:16.224Z,88.00
2018-10-07T08:19:48.375Z,88.30
2018-10-07T08:22:20.550Z,88.60
2018-10-07T08:24:53.167Z,89.20
2018-10-07T08:27:25.403Z,89.30
2018-10-07T08:29:57.554Z,89.30
2018-10-07T08:32:30.183Z,89.40
2018-10-07T08:35:02.515Z,89.50
2018-10-07T08:37:34.678Z,89.60
2018-10-07T08:40:07.316Z,89.70
2018-10-07T08:42:39.451Z,89.50
2018-10-07T08:45:12.037Z,89.40
2018-10-07T08:47:44.429Z,89.40
2018-10-07T08:50:16.726Z,89.70
2018-10-07T08:52:49.898Z,89.70
2018-10-07T08:55:22.173Z,90.00
2018-10-07T08:57:54.561Z,90.00
2018-10-07T09:00:26.857Z,90.00
2018-10-07T09:02:59.083Z,90.00
2018-10-07T09:05:31.995Z,90.10
2018-10-07T09:08:04.162Z,90.10
2018-10-07T09:10:36.721Z,89.80
2018-10-07T09:13:09.098Z,89.30
2018-10-07T09:15:41.666Z,89.10
2018-10-07T09:18:13.830Z,88.90
2018-10-07T09:20:46.224Z,88.50
2018-10-07T09:23:18.658Z,88.40
2018-10-07T09:25:51.050Z,87.90
2018-10-07T09:28:23.958Z,88.30
2018-10-07T09:30:56.270Z,87.80
2018-10-07T09:33:28.457Z,87.60
2018-10-07T09:36:00.588Z,87.10
2018-10-07T09:38:32.951Z,86.70
2018-10-07T09:41:05.349Z,86.30
2018-10-07T09:43:37.646Z,86.30
2018-10-07T09:46:09.906Z,85.90
2018-10-07T09:48:42.714Z,85.40
2018-10-07T09:51:14.813Z,85.00
2018-10-07T09:53:47.521Z,84.90
2018-10-07T09:56:19.887Z,84.60
2018-10-07T09:58:52.065Z,84.80
2018-10-07T10:01:24.158Z,84.70
2018-10-07T10:03:56.630Z,84.90
2018-10-07T10:06:28.850Z,85.30
2018-10-07T10:09:01.451Z,84.50
2018-10-07T10:11:33.834Z,84.80
2018-10-07T10:14:06.081Z,84.60
2018-10-07T10:16:51.806Z,85.70
2018-10-07T10:19:28.173Z,85.80
2018-10-07T10:22:27.194Z,85.90
2018-10-07T10:25:08.940Z,86.10
2018-10-07T10:27:50.379Z,86.30
2018-10-07T10:30:31.779Z,86.30
2018-10-07T10:33:13.423Z,86.20
2018-10-07T10:40:03.580Z,86.20
2018-10-07T10:42:45.415Z,86.10
2018-10-07T10:45:28.160Z,86.50
2018-10-07T10:48:03.487Z,86.10
2018-10-07T10:50:44.838Z,85.80
2018-10-07T10:53:26.309Z,86.10
2018-10-07T10:56:17.428Z,86.30
2018-10-07T10:59:33.059Z,86.70
2018-10-07T11:02:15.465Z,87.80
2018-10-07T11:04:56.038Z,88.30
2018-10-07T11:09:38.451Z,88.70
2018-10-07T11:12:44.823Z,89.40
2018-10-07T11:15:30.995Z,90.10
2018-10-07T11:18:24.359Z,90.20
2018-10-07T11:21:06.253Z,90.50
2018-10-07T11:24:20.647Z,90.70
2018-10-07T11:29:04.631Z,90.90
2018-10-07T11:32:03.074Z,91.10
2018-10-07T11:34:46.251Z,91.40
2018-10-07T11:37:25.498Z,91.50
2018-10-07T11:42:10.350Z,91.60
2018-10-07T11:45:49.205Z,91.60
2018-10-07T11:48:29.534Z,91.90
2018-10-07T11:52:19.601Z,92.10
2018-10-07T11:55:03.679Z,92.10
2018-10-07T11:57:36.142Z,92.20
2018-10-07T12:00:08.315Z,92.20
2018-10-07T12:02:40.735Z,92.40
2018-10-07T12:05:13.146Z,92.30
2018-10-07T12:07:45.893Z,92.40
2018-10-07T12:10:18.036Z,92.20
2018-10-07T12:12:50.277Z,92.30
2018-10-07T12:15:22.719Z,92.30
2018-10-07T12:17:55.024Z,92.30
2018-10-07T12:20:27.338Z,92.30
2018-10-07T12:22:59.590Z,92.30
2018-10-07T12:25:32.140Z,92.20
2018-10-07T12:28:04.714Z,92.20
2018-10-07T12:30:36.938Z,92.10
2018-10-07T12:33:09.669Z,92.00
2018-10-07T12:35:42.233Z,92.00
2018-10-07T12:38:14.376Z,92.00
2018-10-07T12:40:46.402Z,92.00
2018-10-07T12:43:18.811Z,92.00
2018-10-07T12:45:50.919Z,92.10
2018-10-07T12:48:23.264Z,92.20
2018-10-07T12:50:55.812Z,92.30
2018-10-07T12:53:28.260Z,92.20
2018-10-07T12:56:00.426Z,92.60
2018-10-07T12:58:32.418Z,92.60
2018-10-07T13:01:04.860Z,92.70
2018-10-07T13:03:38.153Z,92.60
2018-10-07T13:06:10.468Z,92.60
2018-10-07T13:08:42.739Z,92.70
2018-10-07T13:11:15.072Z,92.70
2018-10-07T13:13:47.238Z,92.70
2018-10-07T13:16:20.212Z,92.70
2018-10-07T13:18:52.559Z,92.70
2018-10-07T13:21:24.784Z,92.70
2018-10-07T13:23:57.081Z,92.70
2018-10-07T13:26:29.731Z,92.80
2018-10-07T13:29:02.216Z,92.80
2018-10-07T13:31:34.627Z,92.80
2018-10-07T13:34:06.784Z,92.80
2018-10-07T13:36:39.142Z,92.80
2018-10-07T13:39:13.622Z,92.80
2018-10-07T13:41:45.969Z,92.80
2018-10-07T13:44:18.131Z,92.80
2018-10-07T13:46:50.429Z,92.70
2018-10-07T13:49:22.582Z,92.70
2018-10-07T13:51:54.967Z,92.80
2018-10-07T13:54:27.332Z,92.70
2018-10-07T13:56:59.408Z,92.60
2018-10-07T13:59:31.714Z,92.80
2018-10-07T14:02:03.952Z,92.80
2018-10-07T14:04:36.273Z,93.10
2018-10-07T14:07:08.699Z,92.80
2018-10-07T14:09:40.891Z,92.80
2018-10-07T14:12:13.923Z,92.70
2018-10-07T14:14:46.435Z,92.70
2018-10-07T14:17:18.618Z,92.70
2018-10-07T14:19:51.539Z,92.70
2018-10-07T14:22:24.186Z,92.70
2018-10-07T14:24:56.346Z,92.70
2018-10-07T14:27:28.406Z,92.60
2018-10-07T14:30:00.915Z,92.50
2018-10-07T14:32:33.187Z,92.50
2018-10-07T14:35:05.406Z,92.50
2018-10-07T14:37:37.731Z,92.50
2018-10-07T14:40:10.146Z,92.50
2018-10-07T14:42:42.626Z,92.50
2018-10-07T14:45:14.986Z,92.60
2018-10-07T14:47:47.046Z,92.50
2018-10-07T14:50:19.139Z,92.60
2018-10-07T14:52:51.699Z,92.60
2018-10-07T14:55:23.859Z,92.70
2018-10-07T14:57:55.867Z,92.70
2018-10-07T15:00:28.402Z,92.70
2018-10-07T15:03:00.606Z,92.70
2018-10-07T15:05:32.836Z,92.70
2018-10-07T15:08:04.946Z,92.70
2018-10-07T15:10:37.075Z,92.70
2018-10-07T15:13:09.451Z,92.80
2018-10-07T15:15:42.003Z,93.00
2018-10-07T15:18:14.377Z,92.90
2018-10-07T15:20:46.615Z,92.80
2018-10-07T15:23:19.196Z,92.90
2018-10-07T15:25:51.610Z,92.80
2018-10-07T15:28:24.021Z,92.70
2018-10-07T15:30:56.471Z,92.70
2018-10-07T15:33:29.088Z,92.70
2018-10-07T15:36:03.144Z,92.60
2018-10-07T15:38:35.465Z,92.60
2018-10-07T15:41:07.627Z,92.60
2018-10-07T15:43:40.458Z,92.40
2018-10-07T15:46:12.467Z,92.30
2018-10-07T15:48:44.859Z,92.20
2018-10-07T15:51:17.195Z,91.80
2018-10-07T15:53:49.388Z,92.10
2018-10-07T15:56:21.638Z,92.00
2018-10-07T15:58:54.108Z,91.60
2018-10-07T16:01:26.372Z,91.70
2018-10-07T16:03:58.531Z,91.40
2018-10-07T16:06:31.168Z,91.50
2018-10-07T16:09:03.720Z,91.30
2018-10-07T16:11:36.031Z,91.10
2018-10-07T16:14:08.255Z,90.50
2018-10-07T16:16:41.094Z,90.90
2018-10-07T16:19:13.610Z,90.70
2018-10-07T16:21:46.038Z,90.80
2018-10-07T16:24:18.627Z,90.30
2018-10-07T16:26:50.974Z,89.80
2018-10-07T16:29:23.063Z,89.20
2018-10-07T16:31:55.435Z,88.60
2018-10-07T16:34:27.965Z,88.80
2018-10-07T16:37:00.359Z,89.00
2018-10-07T16:39:32.765Z,89.40
2018-10-07T16:42:05.124Z,89.80
2018-10-07T16:44:37.490Z,90.00
2018-10-07T16:47:09.671Z,89.60
2018-10-07T16:49:42.059Z,89.10
2018-10-07T16:52:14.643Z,87.80
2018-10-07T16:54:46.994Z,85.10
2018-10-07T16:57:19.527Z,82.30
2018-10-07T16:59:51.590Z,80.50
2018-10-07T17:02:23.977Z,76.60
2018-10-07T17:04:56.206Z,75.40
2018-10-07T17:07:28.590Z,73.30
2018-10-07T17:10:00.802Z,73.40
2018-10-07T17:12:33.209Z,73.80
2018-10-07T17:15:05.650Z,73.10
2018-10-07T17:17:37.753Z,74.30
2018-10-07T17:20:10.505Z,70.20
2018-10-07T17:22:42.779Z,71.50
2018-10-07T17:25:15.731Z,67.30
2018-10-07T17:27:48.188Z,64.60
2018-10-07T17:30:20.659Z,63.50
2018-10-07T17:32:53.040Z,65.30
2018-10-07T17:35:25.340Z,67.00
2018-10-07T17:37:57.972Z,60.40
2018-10-07T17:40:30.106Z,60.10
2018-10-07T17:43:02.504Z,63.90
2018-10-07T17:45:34.904Z,62.80
2018-10-07T17:48:07.088Z,63.00
2018-10-07T17:50:39.187Z,63.90
2018-10-07T17:53:11.493Z,62.90
2018-10-07T17:55:43.278Z,62.10
2018-10-07T17:58:15.444Z,62.40
2018-10-07T18:00:47.860Z,61.90
2018-10-07T18:03:20.327Z,57.90
2018-10-07T18:05:52.648Z,61.20
2018-10-07T18:08:24.927Z,60.90
2018-10-07T18:10:57.328Z,60.30
2018-10-07T18:13:29.540Z,61.00
2018-10-07T18:16:01.928Z,61.20
2018-10-07T18:18:34.500Z,63.70
2018-10-07T18:21:06.800Z,64.70
2018-10-07T18:23:39.257Z,62.60
2018-10-07T18:26:11.354Z,60.20
2018-10-07T18:28:43.727Z,63.30
2018-10-07T18:31:15.749Z,56.10
2018-10-07T18:33:48.554Z,57.50
2018-10-07T18:36:20.959Z,60.50
2018-10-07T18:38:53.943Z,55.60
2018-10-07T18:41:26.337Z,58.00
2018-10-07T18:43:58.499Z,58.80
2018-10-07T18:46:30.822Z,58.30
2018-10-07T18:49:03.589Z,60.80
2018-10-07T18:51:35.992Z,53.80
2018-10-07T18:54:08.145Z,60.20
2018-10-07T18:56:40.633Z,60.20
2018-10-07T18:59:13.140Z,55.00
2018-10-07T19:01:45.386Z,57.40
2018-10-07T19:04:17.555Z,58.20
2018-10-07T19:06:49.725Z,58.90
2018-10-07T19:09:28.189Z,56.00
2018-10-07T19:12:00.417Z,60.20
2018-10-07T19:14:32.530Z,55.00
2018-10-07T19:17:04.969Z,59.50
2018-10-07T19:19:37.354Z,58.50
2018-10-07T19:22:10.552Z,58.10
2018-10-07T19:24:42.896Z,60.70
2018-10-07T19:27:15.301Z,59.90
2018-10-07T19:29:47.679Z,61.70
2018-10-07T19:32:20.869Z,56.80
2018-10-07T19:34:53.276Z,61.80
2018-10-07T19:37:25.642Z,58.70
2018-10-07T19:39:58.195Z,59.20
2018-10-07T19:42:30.501Z,60.90
2018-10-07T19:45:02.941Z,60.60
2018-10-07T19:47:35.907Z,62.90
2018-10-07T19:50:08.366Z,62.00
2018-10-07T19:52:40.657Z,62.80
2018-10-07T19:55:12.880Z,63.80
2018-10-07T19:57:44.837Z,62.30
2018-10-07T20:00:17.315Z,64.50
2018-10-07T20:02:49.458Z,61.80
2018-10-07T20:05:21.849Z,57.80
2018-10-07T20:07:53.955Z,56.60
2018-10-07T20:10:26.397Z,58.80
2018-10-07T20:12:58.954Z,60.70
2018-10-07T20:15:30.895Z,58.50
2018-10-07T20:18:03.492Z,61.00
2018-10-07T20:20:36.464Z,57.10
2018-10-07T20:23:09.015Z,61.00
2018-10-07T20:25:41.429Z,60.90
2018-10-07T20:28:13.594Z,58.30
2018-10-07T20:30:45.702Z,56.10
2018-10-07T20:33:17.858Z,55.20
2018-10-07T20:35:50.471Z,58.80
2018-10-07T20:38:22.879Z,56.70
2018-10-07T20:40:55.220Z,57.60
2018-10-07T20:43:27.420Z,60.10
2018-10-07T20:46:00.095Z,61.50
2018-10-07T20:48:32.644Z,59.20
2018-10-07T20:51:04.929Z,61.30
2018-10-07T20:53:37.256Z,61.30
2018-10-07T20:56:10.015Z,61.80
2018-10-07T20:58:42.025Z,61.30
2018-10-07T21:01:14.466Z,61.00
2018-10-07T21:03:47.028Z,60.80
2018-10-07T21:06:19.584Z,62.30
2018-10-07T21:08:52.155Z,63.50
2018-10-07T21:11:24.706Z,62.20
2018-10-07T21:13:57.263Z,63.50
2018-10-07T21:16:29.674Z,64.30
2018-10-07T21:19:01.830Z,65.30
2018-10-07T21:21:33.850Z,64.00
2018-10-07T21:24:06.095Z,64.50
2018-10-07T21:26:38.402Z,64.90
2018-10-07T21:29:11.032Z,64.80
2018-10-07T21:31:43.313Z,65.60
2018-10-07T21:34:15.305Z,65.90
2018-10-07T21:36:47.903Z,65.40
2018-10-07T21:39:20.543Z,64.50
2018-10-07T21:41:53.000Z,65.60
2018-10-07T21:44:25.196Z,63.00
2018-10-07T21:46:57.847Z,62.20
2018-10-07T21:49:30.173Z,65.30
2018-10-07T21:52:02.531Z,65.90
2018-10-07T21:54:34.693Z,67.00
2018-10-07T21:57:07.445Z,67.00
2018-10-07T21:59:40.120Z,66.30
2018-10-07T22:02:12.198Z,65.90
2018-10-07T22:04:45.223Z,67.20
2018-10-07T22:07:17.646Z,64.30
2018-10-07T22:09:50.136Z,66.30
2018-10-07T22:12:22.238Z,65.20
2018-10-07T22:14:54.613Z,65.60
2018-10-07T22:17:27.626Z,64.10
2018-10-07T22:19:59.815Z,64.80
2018-10-07T22:22:32.331Z,64.80
2018-10-07T22:25:05.323Z,66.20
2018-10-07T22:27:37.672Z,66.50
2018-10-07T22:30:10.144Z,64.90
2018-10-07T22:32:42.297Z,64.20
2018-10-07T22:35:14.610Z,65.00
2018-10-07T22:37:46.937Z,64.40
2018-10-07T22:40:20.011Z,62.70
2018-10-07T22:42:52.438Z,65.30
2018-10-07T22:45:24.779Z,66.50
2018-10-07T22:47:57.008Z,65.60
2018-10-07T22:50:29.462Z,66.30
2018-10-07T22:53:01.686Z,64.00
2018-10-07T22:55:34.056Z,65.90
2018-10-07T22:58:06.619Z,65.70
2018-10-07T23:00:38.834Z,66.90
2018-10-07T23:03:12.337Z,65.00
2018-10-07T23:05:44.919Z,62.90
2018-10-07T23:08:17.223Z,64.30
2018-10-07T23:10:49.607Z,63.40
2018-10-07T23:13:21.906Z,62.50
2018-10-07T23:15:54.459Z,62.80
2018-10-07T23:18:27.124Z,62.20
2018-10-07T23:20:59.728Z,62.20
2018-10-07T23:23:32.145Z,62.20
2018-10-07T23:26:04.628Z,65.00
2018-10-07T23:28:37.141Z,64.50
2018-10-07T23:31:09.759Z,62.70
2018-10-07T23:33:41.859Z,62.80
2018-10-07T23:36:14.263Z,64.90
2018-10-07T23:38:46.869Z,65.30
2018-10-07T23:41:19.390Z,63.40
2018-10-07T23:43:51.771Z,64.00
2018-10-07T23:46:24.190Z,63.40
2018-10-07T23:48:56.708Z,64.40
2018-10-07T23:51:28.932Z,64.10
2018-10-07T23:54:01.432Z,62.00
2018-10-07T23:56:33.823Z,61.70
2018-10-07T23:59:06.171Z,61.50
